createdAt,value
2017-03-10T00:00:55.803Z,46.01
2017-03-10T00:01:55.821Z,45.92
2017-03-10T00:02:55.453Z,45.82
2017-03-10T00:03:55.890Z,45.92
2017-03-10T00:04:55.902Z,46.01
2017-03-10T00:05:55.931Z,46.01
2017-03-10T00:06:55.959Z,46.01
2017-03-10T00:07:55.984Z,46.28
2017-03-10T00:08:55.620Z,46.59
2017-03-10T00:09:56.042Z,46.3
2017-03-10T00:10:56.079Z,46.3
2017-03-10T00:11:56.103Z,45.99
2017-03-10T00:12:55.729Z,46.3
2017-03-10T00:13:55.757Z,46.59
2017-03-10T00:14:55.789Z,46.3
2017-03-10T00:15:55.815Z,46.28
2017-03-10T00:16:56.235Z,46.01
2017-03-10T00:17:56.257Z,46.37
2017-03-10T00:18:56.305Z,46.18
2017-03-10T00:19:56.326Z,46.18
2017-03-10T00:20:56.343Z,46.28
2017-03-10T00:21:55.975Z,46.28
2017-03-10T00:22:56.005Z,46.28
2017-03-10T00:23:56.428Z,46.28
2017-03-10T00:24:56.457Z,46.3
2017-03-10T00:25:56.487Z,46.28
2017-03-10T00:26:56.507Z,46.28
2017-03-10T00:27:56.537Z,46.08
2017-03-10T00:28:56.169Z,46.37
2017-03-10T00:29:56.193Z,46.37
2017-03-10T00:30:56.618Z,46.37
2017-03-10T00:31:56.263Z,46.28
2017-03-10T00:32:56.699Z,46.37
2017-03-10T00:33:56.320Z,46.28
2017-03-10T00:34:56.724Z,46.37
2017-03-10T00:35:56.754Z,46.37
2017-03-10T00:36:56.796Z,46.37
2017-03-10T00:37:56.808Z,46.08
2017-03-10T00:38:56.513Z,46.18
2017-03-10T00:39:56.474Z,46.47
2017-03-10T00:40:56.890Z,46.37
2017-03-10T00:41:56.921Z,46.18
2017-03-10T00:42:56.547Z,46.76
2017-03-10T00:43:56.980Z,46.18
2017-03-10T00:44:56.604Z,46.37
2017-03-10T00:45:56.662Z,46.37
2017-03-10T00:46:56.662Z,46.66
2017-03-10T00:47:57.091Z,46.37
2017-03-10T00:48:56.704Z,46.56
2017-03-10T00:49:56.745Z,46.28
2017-03-10T00:50:57.162Z,46.66
2017-03-10T00:51:57.191Z,46.47
2017-03-10T00:52:56.829Z,46.28
2017-03-10T00:53:57.292Z,46.66
2017-03-10T00:54:57.273Z,46.28
2017-03-10T00:55:57.320Z,46.28
2017-03-10T00:56:57.326Z,46.66
2017-03-10T00:57:57.363Z,46.28
2017-03-10T00:58:57.382Z,46.37
2017-03-10T00:59:57.404Z,46.28
2017-03-10T01:00:57.040Z,46.66
2017-03-10T01:01:57.721Z,46.66
2017-03-10T01:02:57.094Z,46.28
2017-03-10T01:03:57.135Z,46.66
2017-03-10T01:04:57.567Z,46.37
2017-03-10T01:05:57.592Z,46.76
2017-03-10T01:06:57.462Z,46.37
2017-03-10T01:07:57.227Z,46.28
2017-03-10T01:08:57.667Z,46.28
2017-03-10T01:09:57.286Z,46.37
2017-03-10T01:10:57.709Z,46.28
2017-03-10T01:11:57.986Z,46.28
2017-03-10T01:12:57.814Z,46.37
2017-03-10T01:13:57.395Z,46.28
2017-03-10T01:14:57.827Z,46.28
2017-03-10T01:15:57.856Z,46.37
2017-03-10T01:16:58.129Z,46.37
2017-03-10T01:17:57.898Z,46.28
2017-03-10T01:18:57.959Z,46.66
2017-03-10T01:19:57.955Z,46.66
2017-03-10T01:20:57.980Z,46.66
2017-03-10T01:21:58.260Z,46.66
2017-03-10T01:22:57.641Z,46.66
2017-03-10T01:23:58.062Z,46.66
2017-03-10T01:24:57.707Z,46.37
2017-03-10T01:25:58.116Z,46.28
2017-03-10T01:26:58.396Z,46.37
2017-03-10T01:27:57.790Z,46.55
2017-03-10T01:28:58.198Z,46.08
2017-03-10T01:29:57.835Z,46.28
2017-03-10T01:30:57.855Z,46.66
2017-03-10T01:31:58.532Z,46.37
2017-03-10T01:32:58.331Z,46.64
2017-03-10T01:33:58.342Z,46.25
2017-03-10T01:34:58.363Z,46.35
2017-03-10T01:35:58.382Z,46.64
2017-03-10T01:36:58.428Z,46.35
2017-03-10T01:37:58.449Z,46.35
2017-03-10T01:38:58.473Z,46.25
2017-03-10T01:39:58.499Z,46.76
2017-03-10T01:40:58.518Z,46.35
2017-03-10T01:41:58.160Z,46.35
2017-03-10T01:42:58.586Z,46.45
2017-03-10T01:43:58.616Z,46.83
2017-03-10T01:44:58.643Z,46.83
2017-03-10T01:45:58.655Z,46.45
2017-03-10T01:46:58.684Z,46.73
2017-03-10T01:47:58.725Z,46.83
2017-03-10T01:48:58.747Z,46.73
2017-03-10T01:49:58.779Z,46.73
2017-03-10T01:50:58.791Z,46.64
2017-03-10T01:51:58.828Z,46.64
2017-03-10T01:52:58.853Z,46.73
2017-03-10T01:53:58.494Z,46.64
2017-03-10T01:54:58.923Z,46.64
2017-03-10T01:55:58.931Z,46.64
2017-03-10T01:56:58.571Z,46.35
2017-03-10T01:57:58.987Z,46.64
2017-03-10T01:58:59.014Z,46.64
2017-03-10T01:59:59.046Z,46.64
2017-03-10T02:00:58.688Z,46.73
2017-03-10T02:01:59.092Z,46.73
2017-03-10T02:02:58.720Z,46.64
2017-03-10T02:03:58.756Z,46.55
2017-03-10T02:04:59.177Z,46.35
2017-03-10T02:05:59.214Z,46.35
2017-03-10T02:06:59.239Z,46.45
2017-03-10T02:07:59.256Z,46.35
2017-03-10T02:08:59.285Z,46.45
2017-03-10T02:09:59.308Z,46.35
2017-03-10T02:10:58.950Z,46.45
2017-03-10T02:11:59.371Z,46.45
2017-03-10T02:12:59.395Z,46.55
2017-03-10T02:13:59.421Z,46.35
2017-03-10T02:14:59.054Z,46.45
2017-03-10T02:15:59.475Z,46.45
2017-03-10T02:16:59.503Z,46.45
2017-03-10T02:17:59.528Z,46.35
2017-03-10T02:18:59.552Z,46.35
2017-03-10T02:19:59.582Z,46.45
2017-03-10T02:20:59.610Z,46.45
2017-03-10T02:21:59.237Z,46.45
2017-03-10T02:22:59.664Z,46.35
2017-03-10T02:23:59.684Z,46.64
2017-03-10T02:24:59.325Z,46.55
2017-03-10T02:25:59.735Z,46.45
2017-03-10T02:26:59.371Z,46.45
2017-03-10T02:27:59.395Z,46.55
2017-03-10T02:28:59.820Z,46.35
2017-03-10T02:29:59.853Z,46.64
2017-03-10T02:30:59.489Z,46.45
2017-03-10T02:31:59.514Z,46.45
2017-03-10T02:32:59.540Z,46.55
2017-03-10T02:33:59.960Z,46.55
2017-03-10T02:34:59.988Z,46.45
2017-03-10T02:35:59.613Z,46.45
2017-03-10T02:37:00.038Z,46.55
2017-03-10T02:38:00.066Z,46.55
2017-03-10T02:39:00.092Z,46.35
2017-03-10T02:40:00.133Z,46.64
2017-03-10T02:41:00.145Z,46.64
2017-03-10T02:42:00.198Z,46.45
2017-03-10T02:43:00.199Z,46.45
2017-03-10T02:43:59.836Z,46.45
2017-03-10T02:45:00.253Z,46.15
2017-03-10T02:46:00.289Z,46.64
2017-03-10T02:47:00.323Z,46.64
2017-03-10T02:48:00.191Z,46.25
2017-03-10T02:49:00.375Z,46.42
2017-03-10T02:50:00.388Z,46.45
2017-03-10T02:51:00.412Z,46.15
2017-03-10T02:52:00.058Z,46.42
2017-03-10T02:53:00.719Z,46.45
2017-03-10T02:54:00.495Z,46.14
2017-03-10T02:55:00.528Z,46.15
2017-03-10T02:56:00.152Z,46.52
2017-03-10T02:57:00.572Z,46.23
2017-03-10T02:58:00.856Z,46.45
2017-03-10T02:59:00.628Z,46.45
2017-03-10T03:00:00.261Z,46.14
2017-03-10T03:01:00.692Z,46.45
2017-03-10T03:02:00.714Z,46.62
2017-03-10T03:03:00.994Z,46.14
2017-03-10T03:04:00.779Z,46.64
2017-03-10T03:05:00.793Z,46.33
2017-03-10T03:06:00.816Z,46.42
2017-03-10T03:07:00.457Z,46.62
2017-03-10T03:08:01.130Z,46.62
2017-03-10T03:09:00.899Z,46.52
2017-03-10T03:10:00.923Z,46.45
2017-03-10T03:11:00.951Z,46.52
2017-03-10T03:12:00.583Z,46.52
2017-03-10T03:13:00.857Z,46.62
2017-03-10T03:14:00.637Z,46.55
2017-03-10T03:15:01.071Z,46.33
2017-03-10T03:16:00.687Z,46.14
2017-03-10T03:17:01.126Z,46.45
2017-03-10T03:18:01.389Z,46.42
2017-03-10T03:19:00.779Z,46.52
2017-03-10T03:20:01.191Z,46.42
2017-03-10T03:21:01.223Z,46.42
2017-03-10T03:22:00.852Z,46.62
2017-03-10T03:23:01.529Z,46.42
2017-03-10T03:24:01.298Z,46.42
2017-03-10T03:25:01.329Z,46.14
2017-03-10T03:26:01.352Z,46.23
2017-03-10T03:27:01.381Z,46.42
2017-03-10T03:28:01.417Z,46.14
2017-03-10T03:29:01.434Z,46.42
2017-03-10T03:30:01.065Z,46.52
2017-03-10T03:31:01.486Z,46.62
2017-03-10T03:32:01.516Z,46.42
2017-03-10T03:33:01.546Z,46.62
2017-03-10T03:34:01.170Z,46.33
2017-03-10T03:35:01.200Z,46.42
2017-03-10T03:36:01.227Z,46.42
2017-03-10T03:37:01.647Z,46.42
2017-03-10T03:38:01.668Z,46.42
2017-03-10T03:39:01.724Z,46.42
2017-03-10T03:40:01.734Z,46.42
2017-03-10T03:41:01.363Z,46.42
2017-03-10T03:42:01.784Z,46.42
2017-03-10T03:43:01.803Z,46.33
2017-03-10T03:44:01.836Z,46.33
2017-03-10T03:45:01.861Z,46.42
2017-03-10T03:46:01.890Z,46.52
2017-03-10T03:47:01.946Z,46.52
2017-03-10T03:48:01.543Z,46.33
2017-03-10T03:49:01.968Z,46.42
2017-03-10T03:50:02.013Z,46.33
2017-03-10T03:51:02.030Z,46.42
2017-03-10T03:52:02.051Z,46.33
2017-03-10T03:53:02.091Z,46.33
2017-03-10T03:54:02.103Z,46.33
2017-03-10T03:55:02.124Z,46.42
2017-03-10T03:56:02.149Z,46.42
2017-03-10T03:57:02.182Z,46.33
2017-03-10T03:58:02.212Z,46.33
2017-03-10T03:59:02.236Z,46.33
2017-03-10T04:00:02.269Z,46.42
2017-03-10T04:01:02.293Z,46.33
2017-03-10T04:02:01.918Z,46.23
2017-03-10T04:03:02.351Z,46.33
2017-03-10T04:04:02.368Z,46.52
2017-03-10T04:05:02.397Z,46.33
2017-03-10T04:06:02.417Z,46.33
2017-03-10T04:07:02.444Z,46.33
2017-03-10T04:08:02.486Z,46.33
2017-03-10T04:09:02.503Z,46.52
2017-03-10T04:10:02.124Z,46.62
2017-03-10T04:11:02.573Z,46.42
2017-03-10T04:12:02.582Z,46.62
2017-03-10T04:13:02.612Z,46.42
2017-03-10T04:14:02.651Z,46.33
2017-03-10T04:15:02.659Z,46.42
2017-03-10T04:16:02.688Z,46.42
2017-03-10T04:17:02.712Z,46.42
2017-03-10T04:18:02.746Z,46.52
2017-03-10T04:19:02.371Z,46.52
2017-03-10T04:20:02.814Z,46.33
2017-03-10T04:21:02.828Z,46.42
2017-03-10T04:22:02.448Z,46.42
2017-03-10T04:23:02.489Z,46.33
2017-03-10T04:24:02.906Z,46.33
2017-03-10T04:25:02.921Z,46.33
2017-03-10T04:26:02.962Z,46.33
2017-03-10T04:27:02.580Z,46.33
2017-03-10T04:28:03.004Z,46.42
2017-03-10T04:29:03.033Z,46.52
2017-03-10T04:30:03.061Z,46.42
2017-03-10T04:31:02.686Z,46.62
2017-03-10T04:32:03.126Z,46.81
2017-03-10T04:33:02.740Z,46.42
2017-03-10T04:34:03.165Z,46.42
2017-03-10T04:35:03.193Z,46.33
2017-03-10T04:36:03.231Z,46.33
2017-03-10T04:37:03.247Z,46.52
2017-03-10T04:38:02.880Z,46.4
2017-03-10T04:39:03.304Z,46.5
2017-03-10T04:40:03.325Z,46.52
2017-03-10T04:41:02.951Z,46.4
2017-03-10T04:42:02.987Z,46.42
2017-03-10T04:43:03.404Z,46.5
2017-03-10T04:44:03.441Z,46.42
2017-03-10T04:45:03.066Z,46.31
2017-03-10T04:46:03.499Z,46.42
2017-03-10T04:47:03.115Z,46.33
2017-03-10T04:48:03.539Z,46.31
2017-03-10T04:49:03.564Z,46.33
2017-03-10T04:50:03.196Z,46.4
2017-03-10T04:51:03.621Z,46.33
2017-03-10T04:52:03.659Z,46.52
2017-03-10T04:53:03.672Z,46.42
2017-03-10T04:54:03.305Z,46.42
2017-03-10T04:55:03.333Z,46.33
2017-03-10T04:56:03.750Z,46.33
2017-03-10T04:57:03.390Z,46.31
2017-03-10T04:58:03.403Z,46.31
2017-03-10T04:59:04.076Z,46.31
2017-03-10T05:00:03.857Z,46.5
2017-03-10T05:01:03.898Z,46.31
2017-03-10T05:02:03.926Z,46.31
2017-03-10T05:03:03.552Z,46.4
2017-03-10T05:04:04.216Z,46.31
2017-03-10T05:05:03.597Z,46.31
2017-03-10T05:06:04.013Z,46.4
2017-03-10T05:07:04.053Z,46.31
2017-03-10T05:08:03.682Z,46.31
2017-03-10T05:09:03.948Z,46.31
2017-03-10T05:10:04.121Z,46.31
2017-03-10T05:11:04.148Z,46.31
2017-03-10T05:12:04.188Z,46.5
2017-03-10T05:13:04.200Z,46.4
2017-03-10T05:14:04.475Z,46.42
2017-03-10T05:15:03.884Z,46.11
2017-03-10T05:16:04.282Z,46.11
2017-03-10T05:17:04.307Z,46.21
2017-03-10T05:18:04.335Z,46.31
2017-03-10T05:19:04.615Z,46.31
2017-03-10T05:20:03.994Z,46.21
2017-03-10T05:21:04.417Z,46.42
2017-03-10T05:22:04.438Z,46.31
2017-03-10T05:23:04.467Z,46.33
2017-03-10T05:24:04.490Z,46.4
2017-03-10T05:25:04.533Z,46.4
2017-03-10T05:26:04.149Z,46.4
2017-03-10T05:27:04.571Z,46.11
2017-03-10T05:28:04.600Z,46.11
2017-03-10T05:29:04.628Z,46.14
2017-03-10T05:30:04.657Z,46.4
2017-03-10T05:31:04.282Z,46.42
2017-03-10T05:32:04.306Z,46.33
2017-03-10T05:33:04.735Z,46.69
2017-03-10T05:34:04.769Z,46.62
2017-03-10T05:35:04.785Z,46.71
2017-03-10T05:36:04.818Z,46.71
2017-03-10T05:37:04.443Z,46.71
2017-03-10T05:38:04.866Z,46.52
2017-03-10T05:39:04.889Z,46.33
2017-03-10T05:40:04.920Z,46.14
2017-03-10T05:41:04.546Z,46.42
2017-03-10T05:42:04.575Z,46.33
2017-03-10T05:43:04.995Z,46.23
2017-03-10T05:44:05.032Z,46.14
2017-03-10T05:45:05.062Z,46.33
2017-03-10T05:46:04.680Z,46.04
2017-03-10T05:47:04.707Z,46.23
2017-03-10T05:48:05.132Z,46.42
2017-03-10T05:49:05.149Z,46.23
2017-03-10T05:50:04.789Z,45.94
2017-03-10T05:51:05.210Z,45.84
2017-03-10T05:52:04.841Z,45.65
2017-03-10T05:53:05.259Z,45.94
2017-03-10T05:54:04.892Z,45.75
2017-03-10T05:55:05.313Z,45.84
2017-03-10T05:56:05.335Z,45.94
2017-03-10T05:57:05.367Z,46.23
2017-03-10T05:58:05.000Z,46.04
2017-03-10T05:59:05.424Z,45.84
2017-03-10T06:00:05.061Z,45.65
2017-03-10T06:01:05.479Z,45.65
2017-03-10T06:02:05.514Z,45.36
2017-03-10T06:03:05.532Z,45.65
2017-03-10T06:04:05.555Z,45.56
2017-03-10T06:05:05.580Z,45.87
2017-03-10T06:06:05.610Z,45.77
2017-03-10T06:07:05.638Z,45.77
2017-03-10T06:08:05.671Z,45.87
2017-03-10T06:09:05.718Z,45.58
2017-03-10T06:10:05.713Z,45.29
2017-03-10T06:11:05.742Z,45.39
2017-03-10T06:12:05.766Z,45.58
2017-03-10T06:13:05.799Z,45
2017-03-10T06:14:05.436Z,45.1
2017-03-10T06:15:06.097Z,45.39
2017-03-10T06:16:05.877Z,45.58
2017-03-10T06:17:05.897Z,45.39
2017-03-10T06:18:05.923Z,45.39
2017-03-10T06:19:05.964Z,45.29
2017-03-10T06:20:06.256Z,45.29
2017-03-10T06:21:06.009Z,45.2
2017-03-10T06:22:06.037Z,45.2
2017-03-10T06:23:06.059Z,45.29
2017-03-10T06:24:06.096Z,45.2
2017-03-10T06:25:06.359Z,45.2
2017-03-10T06:26:06.133Z,45
2017-03-10T06:27:06.163Z,45.2
2017-03-10T06:28:06.191Z,44.9
2017-03-10T06:29:05.836Z,45.2
2017-03-10T06:30:06.495Z,45.39
2017-03-10T06:31:05.885Z,45.48
2017-03-10T06:32:05.900Z,45.48
2017-03-10T06:33:06.323Z,45.48
2017-03-10T06:34:06.360Z,45.29
2017-03-10T06:35:06.628Z,45.2
2017-03-10T06:36:06.405Z,45
2017-03-10T06:37:06.438Z,45.1
2017-03-10T06:38:06.470Z,45.2
2017-03-10T06:39:06.484Z,45
2017-03-10T06:40:06.512Z,45.2
2017-03-10T06:41:06.537Z,44.9
2017-03-10T06:42:06.570Z,45.29
2017-03-10T06:43:06.587Z,44.81
2017-03-10T06:44:06.231Z,45
2017-03-10T06:45:06.648Z,44.32
2017-03-10T06:46:06.670Z,44.32
2017-03-10T06:47:06.694Z,44.32
2017-03-10T06:48:06.731Z,44.71
2017-03-10T06:49:06.751Z,44.71
2017-03-10T06:50:06.788Z,44.52
2017-03-10T06:51:06.837Z,44.52
2017-03-10T06:52:06.841Z,44.9
2017-03-10T06:53:06.855Z,44.81
2017-03-10T06:54:06.883Z,44.71
2017-03-10T06:55:06.905Z,44.81
2017-03-10T06:56:06.936Z,44.83
2017-03-10T06:57:06.958Z,44.81
2017-03-10T06:58:06.997Z,44.62
2017-03-10T06:59:07.017Z,44.83
2017-03-10T07:00:07.040Z,44.81
2017-03-10T07:01:07.069Z,44.83
2017-03-10T07:02:07.106Z,44.52
2017-03-10T07:03:07.123Z,44.45
2017-03-10T07:04:07.160Z,44.54
2017-03-10T07:05:07.176Z,44.35
2017-03-10T07:06:07.200Z,44.15
2017-03-10T07:07:07.242Z,44.45
2017-03-10T07:08:07.257Z,44.15
2017-03-10T07:09:06.895Z,44.25
2017-03-10T07:10:07.315Z,44.15
2017-03-10T07:11:06.948Z,44.54
2017-03-10T07:12:07.364Z,43.77
2017-03-10T07:13:07.394Z,43.67
2017-03-10T07:14:07.423Z,43.21
2017-03-10T07:15:07.051Z,41.5
2017-03-10T07:16:07.472Z,40.77
2017-03-10T07:17:07.113Z,39.43
2017-03-10T07:18:07.546Z,38.6
2017-03-10T07:19:07.561Z,37.46
2017-03-10T07:20:07.592Z,36.6
2017-03-10T07:21:07.616Z,35.85
2017-03-10T07:22:07.636Z,35.09
2017-03-10T07:23:07.673Z,34.91
2017-03-10T07:24:07.299Z,34.16
2017-03-10T07:25:07.719Z,33.29
2017-03-10T07:26:07.740Z,32.92
2017-03-10T07:27:07.771Z,32.44
2017-03-10T07:28:07.411Z,32.26
2017-03-10T07:29:07.434Z,31.7
2017-03-10T07:30:07.854Z,31.32
2017-03-10T07:31:07.895Z,30.64
2017-03-10T07:32:07.917Z,30.74
2017-03-10T07:33:07.957Z,29.58
2017-03-10T07:34:07.974Z,29.49
2017-03-10T07:35:08.015Z,29.21
2017-03-10T07:36:08.031Z,29.5
2017-03-10T07:37:08.073Z,29.5
2017-03-10T07:38:08.085Z,30.26
2017-03-10T07:39:08.124Z,31.13
2017-03-10T07:40:08.147Z,31.21
2017-03-10T07:41:08.188Z,32.17
2017-03-10T07:42:08.208Z,32.54
2017-03-10T07:43:07.838Z,33.11
2017-03-10T07:44:08.262Z,33.28
2017-03-10T07:45:08.295Z,33.67
2017-03-10T07:46:08.570Z,34.33
2017-03-10T07:47:08.347Z,34.33
2017-03-10T07:48:08.377Z,34.22
2017-03-10T07:49:08.414Z,34.7
2017-03-10T07:50:08.454Z,34.8
2017-03-10T07:51:08.723Z,35.27
2017-03-10T07:52:08.541Z,35.36
2017-03-10T07:53:08.517Z,34.88
2017-03-10T07:54:08.542Z,34.96
2017-03-10T07:55:08.572Z,35.54
2017-03-10T07:56:08.863Z,36.12
2017-03-10T07:57:08.637Z,35.83
2017-03-10T07:58:08.661Z,35.91
2017-03-10T07:59:08.685Z,35.91
2017-03-10T08:00:08.726Z,36.2
2017-03-10T08:01:08.998Z,36.58
2017-03-10T08:02:08.785Z,36.38
2017-03-10T08:03:08.805Z,36.1
2017-03-10T08:04:08.830Z,34.92
2017-03-10T08:05:08.867Z,34.15
2017-03-10T08:06:08.747Z,33.76
2017-03-10T08:07:08.923Z,33.26
2017-03-10T08:08:08.945Z,34.23
2017-03-10T08:09:08.973Z,34.91
2017-03-10T08:10:09.006Z,34.7
2017-03-10T08:11:09.278Z,34.5
2017-03-10T08:12:08.665Z,34.7
2017-03-10T08:13:09.084Z,34.99
2017-03-10T08:14:09.125Z,34.99
2017-03-10T08:15:09.154Z,34.79
2017-03-10T08:16:09.426Z,34.7
2017-03-10T08:17:09.199Z,35.95
2017-03-10T08:18:09.221Z,35.84
2017-03-10T08:19:09.254Z,35.36
2017-03-10T08:20:09.282Z,33.91
2017-03-10T08:21:09.551Z,34
2017-03-10T08:22:09.335Z,33.98
2017-03-10T08:23:09.368Z,35.14
2017-03-10T08:24:08.998Z,35.22
2017-03-10T08:25:09.069Z,36
2017-03-10T08:26:09.698Z,34.84
2017-03-10T08:27:09.082Z,34.84
2017-03-10T08:28:09.495Z,34.16
2017-03-10T08:29:09.134Z,33.78
2017-03-10T08:30:09.557Z,34.16
2017-03-10T08:31:09.845Z,33.76
2017-03-10T08:32:09.215Z,34.44
2017-03-10T08:33:09.636Z,34.92
2017-03-10T08:34:09.269Z,35.98
2017-03-10T08:35:09.693Z,36.54
2017-03-10T08:36:09.325Z,36.15
2017-03-10T08:37:09.745Z,36.46
2017-03-10T08:38:09.779Z,36.63
2017-03-10T08:39:09.800Z,36.83
2017-03-10T08:40:09.432Z,37.33
2017-03-10T08:41:09.476Z,37.43
2017-03-10T08:42:09.881Z,37.52
2017-03-10T08:43:09.923Z,37.33
2017-03-10T08:44:09.935Z,37.52
2017-03-10T08:45:09.968Z,37.71
2017-03-10T08:46:09.991Z,37.62
2017-03-10T08:47:10.025Z,37.91
2017-03-10T08:48:10.050Z,37.91
2017-03-10T08:49:09.671Z,37.93
2017-03-10T08:50:09.707Z,38.29
2017-03-10T08:51:09.733Z,38.41
2017-03-10T08:52:10.169Z,37.93
2017-03-10T08:53:10.190Z,37.83
2017-03-10T08:54:09.811Z,37.65
2017-03-10T08:55:10.239Z,37.56
2017-03-10T08:56:10.268Z,36.22
2017-03-10T08:57:10.289Z,36.24
2017-03-10T08:58:09.922Z,36.07
2017-03-10T08:59:10.343Z,35.21
2017-03-10T09:00:09.987Z,35.21
2017-03-10T09:01:10.400Z,34.55
2017-03-10T09:02:10.459Z,34.57
2017-03-10T09:03:10.457Z,33.7
2017-03-10T09:04:10.490Z,33.52
2017-03-10T09:05:10.515Z,33.14
2017-03-10T09:06:10.163Z,32.86
2017-03-10T09:07:10.185Z,32.86
2017-03-10T09:08:10.609Z,32.67
2017-03-10T09:09:10.218Z,32.47
2017-03-10T09:10:10.687Z,32.47
2017-03-10T09:11:10.279Z,32.76
2017-03-10T09:12:10.317Z,33.06
2017-03-10T09:13:10.343Z,33.23
2017-03-10T09:14:10.786Z,33.42
2017-03-10T09:15:10.799Z,33.62
2017-03-10T09:16:10.835Z,34.09
2017-03-10T09:17:10.450Z,34.47
2017-03-10T09:18:10.896Z,34.28
2017-03-10T09:19:10.921Z,34.65
2017-03-10T09:20:10.954Z,35.33
2017-03-10T09:21:10.562Z,35.02
2017-03-10T09:22:10.600Z,34.92
2017-03-10T09:23:11.012Z,35.31
2017-03-10T09:24:10.665Z,35.7
2017-03-10T09:25:10.670Z,35.8
2017-03-10T09:26:11.107Z,35.88
2017-03-10T09:27:10.728Z,35.78
2017-03-10T09:28:10.773Z,36.07
2017-03-10T09:29:10.786Z,35.68
2017-03-10T09:30:11.206Z,35.97
2017-03-10T09:31:11.254Z,35.88
2017-03-10T09:32:11.514Z,35.97
2017-03-10T09:33:11.300Z,36.16
2017-03-10T09:34:10.917Z,36.26
2017-03-10T09:35:11.341Z,35.95
2017-03-10T09:36:11.379Z,36.44
2017-03-10T09:37:11.655Z,36.53
2017-03-10T09:38:11.441Z,36.72
2017-03-10T09:39:11.061Z,36.53
2017-03-10T09:40:11.102Z,36.63
2017-03-10T09:41:11.518Z,36.72
2017-03-10T09:42:11.399Z,36.72
2017-03-10T09:43:11.196Z,36.63
2017-03-10T09:44:11.192Z,36.72
2017-03-10T09:45:11.626Z,37.12
2017-03-10T09:46:11.255Z,37.21
2017-03-10T09:47:11.932Z,37.3
2017-03-10T09:48:11.716Z,37.3
2017-03-10T09:49:11.761Z,37.21
2017-03-10T09:50:11.761Z,37.7
2017-03-10T09:51:11.434Z,37.02
2017-03-10T09:52:11.679Z,37.21
2017-03-10T09:53:11.848Z,37.21
2017-03-10T09:54:11.876Z,37.7
2017-03-10T09:55:11.901Z,37.5
2017-03-10T09:56:11.927Z,37.48
2017-03-10T09:57:11.819Z,37.21
2017-03-10T09:58:11.591Z,37.6
2017-03-10T09:59:11.620Z,37.79
2017-03-10T10:00:11.641Z,37.7
2017-03-10T10:01:12.065Z,37.79
2017-03-10T10:02:12.358Z,37.79
2017-03-10T10:03:11.726Z,37.4
2017-03-10T10:04:11.755Z,37.21
2017-03-10T10:05:11.784Z,37.4
2017-03-10T10:06:11.814Z,37.4
2017-03-10T10:07:12.089Z,37.4
2017-03-10T10:08:11.871Z,37.7
2017-03-10T10:09:12.304Z,37.7
2017-03-10T10:10:12.316Z,37.21
2017-03-10T10:11:11.948Z,37.3
2017-03-10T10:12:12.626Z,37.3
2017-03-10T10:13:12.014Z,37.4
2017-03-10T10:14:12.035Z,37.5
2017-03-10T10:15:12.460Z,37.21
2017-03-10T10:16:12.089Z,37.6
2017-03-10T10:17:12.138Z,37.81
2017-03-10T10:18:12.542Z,37.21
2017-03-10T10:19:12.562Z,37.6
2017-03-10T10:20:12.597Z,37.4
2017-03-10T10:21:12.624Z,37.71
2017-03-10T10:22:12.657Z,37.32
2017-03-10T10:23:12.282Z,37.42
2017-03-10T10:24:12.723Z,37.23
2017-03-10T10:25:12.747Z,37.52
2017-03-10T10:26:12.368Z,37.52
2017-03-10T10:27:12.805Z,37.32
2017-03-10T10:28:12.430Z,37.32
2017-03-10T10:29:12.861Z,37.42
2017-03-10T10:30:12.886Z,37.42
2017-03-10T10:31:12.511Z,37.23
2017-03-10T10:32:12.933Z,37.52
2017-03-10T10:33:12.960Z,37.23
2017-03-10T10:34:12.590Z,37.42
2017-03-10T10:35:12.619Z,37.32
2017-03-10T10:36:12.648Z,37.42
2017-03-10T10:37:13.092Z,37.52
2017-03-10T10:38:13.114Z,37.52
2017-03-10T10:39:13.134Z,37.71
2017-03-10T10:40:13.159Z,37.9
2017-03-10T10:41:13.180Z,37.71
2017-03-10T10:42:13.212Z,37.52
2017-03-10T10:43:12.837Z,37.81
2017-03-10T10:44:13.269Z,37.62
2017-03-10T10:45:13.303Z,38.1
2017-03-10T10:46:12.948Z,37.9
2017-03-10T10:47:13.354Z,37.52
2017-03-10T10:48:13.377Z,37.81
2017-03-10T10:49:13.425Z,37.9
2017-03-10T10:50:13.043Z,38.08
2017-03-10T10:51:13.479Z,37.9
2017-03-10T10:52:13.098Z,38.08
2017-03-10T10:53:13.128Z,38.08
2017-03-10T10:54:13.157Z,38.2
2017-03-10T10:55:13.577Z,38.08
2017-03-10T10:56:13.211Z,38.46
2017-03-10T10:57:13.635Z,37.98
2017-03-10T10:58:13.272Z,38.48
2017-03-10T10:59:13.693Z,38.37
2017-03-10T11:00:13.729Z,38.37
2017-03-10T11:01:13.750Z,38.46
2017-03-10T11:02:13.787Z,38.56
2017-03-10T11:03:13.804Z,38.46
2017-03-10T11:04:13.833Z,38.56
2017-03-10T11:05:13.868Z,38.37
2017-03-10T11:06:13.494Z,38.95
2017-03-10T11:07:13.918Z,38.46
2017-03-10T11:08:13.947Z,38.85
2017-03-10T11:09:13.980Z,38.85
2017-03-10T11:10:14.013Z,38.66
2017-03-10T11:11:13.637Z,39.24
2017-03-10T11:12:13.666Z,39.04
2017-03-10T11:13:14.091Z,39.14
2017-03-10T11:14:14.116Z,38.85
2017-03-10T11:15:13.761Z,38.85
2017-03-10T11:16:14.181Z,38.95
2017-03-10T11:17:13.798Z,38.95
2017-03-10T11:18:14.232Z,38.85
2017-03-10T11:19:14.259Z,39.06
2017-03-10T11:20:14.288Z,38.95
2017-03-10T11:21:14.317Z,38.46
2017-03-10T11:22:14.364Z,38.56
2017-03-10T11:23:14.008Z,38.95
2017-03-10T11:24:14.407Z,38.85
2017-03-10T11:25:14.032Z,38.56
2017-03-10T11:26:14.473Z,38.66
2017-03-10T11:27:14.089Z,38.85
2017-03-10T11:28:14.782Z,38.76
2017-03-10T11:29:14.544Z,38.87
2017-03-10T11:30:14.608Z,38.97
2017-03-10T11:31:14.225Z,38.58
2017-03-10T11:32:14.637Z,38.68
2017-03-10T11:33:14.912Z,38.48
2017-03-10T11:34:14.725Z,39.06
2017-03-10T11:35:14.716Z,38.68
2017-03-10T11:36:14.345Z,38.58
2017-03-10T11:37:14.781Z,38.68
2017-03-10T11:38:15.062Z,38.78
2017-03-10T11:39:14.830Z,39.55
2017-03-10T11:40:14.855Z,38.78
2017-03-10T11:41:14.889Z,38.68
2017-03-10T11:42:14.949Z,39.06
2017-03-10T11:43:15.197Z,38.58
2017-03-10T11:44:14.987Z,38.12
2017-03-10T11:45:15.003Z,38.2
2017-03-10T11:46:15.026Z,37.82
2017-03-10T11:47:15.065Z,38.21
2017-03-10T11:48:14.960Z,38.31
2017-03-10T11:49:14.722Z,38.12
2017-03-10T11:50:14.746Z,38.02
2017-03-10T11:51:15.179Z,37.92
2017-03-10T11:52:14.808Z,38.02
2017-03-10T11:53:15.483Z,38.02
2017-03-10T11:54:15.265Z,37.82
2017-03-10T11:55:15.285Z,37.82
2017-03-10T11:56:15.318Z,37.63
2017-03-10T11:57:14.952Z,37.55
2017-03-10T11:58:15.623Z,37.65
2017-03-10T11:59:15.413Z,37.26
2017-03-10T12:00:15.433Z,37.65
2017-03-10T12:01:15.061Z,36.99
2017-03-10T12:02:15.491Z,36.6
2017-03-10T12:03:15.767Z,36.41
2017-03-10T12:04:15.160Z,36.22
2017-03-10T12:05:15.177Z,35.85
2017-03-10T12:06:15.618Z,35.56
2017-03-10T12:07:15.634Z,35.28
2017-03-10T12:08:15.907Z,35.38
2017-03-10T12:09:15.296Z,34.41
2017-03-10T12:10:15.737Z,34.91
2017-03-10T12:11:15.764Z,34.23
2017-03-10T12:12:15.778Z,33.96
2017-03-10T12:13:16.106Z,34.06
2017-03-10T12:14:15.844Z,33.67
2017-03-10T12:15:15.872Z,33.49
2017-03-10T12:16:15.917Z,33.01
2017-03-10T12:17:15.934Z,32.92
2017-03-10T12:18:16.214Z,33.02
2017-03-10T12:19:15.993Z,32.73
2017-03-10T12:20:15.629Z,32.54
2017-03-10T12:21:16.054Z,32.45
2017-03-10T12:22:16.080Z,32.07
2017-03-10T12:23:16.370Z,31.58
2017-03-10T12:24:16.147Z,31.11
2017-03-10T12:25:16.175Z,30.91
2017-03-10T12:26:16.208Z,30.91
2017-03-10T12:27:16.234Z,30.74
2017-03-10T12:28:16.525Z,30.74
2017-03-10T12:29:15.914Z,30.25
2017-03-10T12:30:16.332Z,30.15
2017-03-10T12:31:16.357Z,29.58
2017-03-10T12:32:15.997Z,29.68
2017-03-10T12:33:16.281Z,29.29
2017-03-10T12:34:16.454Z,29.4
2017-03-10T12:35:16.487Z,29.6
2017-03-10T12:36:16.120Z,28.72
2017-03-10T12:37:16.560Z,28.33
2017-03-10T12:38:16.442Z,28.63
2017-03-10T12:39:16.610Z,28.54
2017-03-10T12:40:16.653Z,28.64
2017-03-10T12:41:16.284Z,28.05
2017-03-10T12:42:16.705Z,28.34
2017-03-10T12:43:17.004Z,28.45
2017-03-10T12:44:16.781Z,28.65
2017-03-10T12:45:16.807Z,28.36
2017-03-10T12:46:16.847Z,27.87
2017-03-10T12:47:16.864Z,28.16
2017-03-10T12:49:16.929Z,27.97
2017-03-10T12:50:16.954Z,27.87
2017-03-10T12:51:17.003Z,27.97
2017-03-10T12:52:17.861Z,27.87
2017-03-10T12:53:16.666Z,27.98
2017-03-10T12:54:17.337Z,27.69
2017-03-10T12:55:16.730Z,27.59
2017-03-10T12:56:17.158Z,27.59
2017-03-10T12:57:17.179Z,27.89